< < Back
Terminal Aerodrome Forecast


Current Version              Previous Versions:   1  2  3  4  5  6  7  8  9  

Terminal Aerodrome Forecast

867
FTUS44 KBMX 311700
TAFTCL
TAF
KTCL 311732Z 3118/0118 13003KT P6SM BKN250
     FM312200 14003KT P6SM OVC150
     FM011500 15009KT P6SM -RA OVC040=

Latest METAR

340
SAUS70 KWBC 010700 RRX
MTRTCL
METAR KTCL 010653Z AUTO VRB05KT 10SM CLR 11/M04 A3017 RMK AO2 SLP215
T01061044


USA.gov is the U.S. government's official web portal to all federal, state and local government web resources and services.